Manteno, Illinois
Current Conditions -  °F | °C
As of 11:55 PM on Tuesday 21 Oct 2014 (Local Time) from KIKK Reporting Station
Clear Clear  
Wind Chill: 44°   Ceiling: Unl
Heat Index: 44°   Visibility: 10mi
Dew Point: 39°   Wind: 3mph
Humidity: 84%   Direction: 40°NE
Pressure: 30.26"   Gusts: NA
Location:  41.25°N, 87.83°W
Report Text: KIKK 220455Z AUTO 04003KT 10SM CLR 06/04 A3026 RMK AO2 T00640038
Loading
Personal Weather Stations






























Interactive Weather Map New forecast layout! Learn more

10-Day Weather Forecast

Advertisements
Track Severe Weather on mobile